Time;durP1;ratioP1;P1;durP2;ratioP2;P2;SDS_P1;SDS_P2;PMS_P1;PMS_P2;Temp;Humidity;BMP_temperature;BMP_pressure;BME280_temperature;BME280_humidity;BME280_pressure;Samples;Min_cycle;Max_cycle;Signal;HPM_P1;HPM_P2
2023/01/09 00:01:50;;;;;;;5.00;4.57;;;;;;;7.66;100.00;96391.69;5033038;28;20232;-71
2023/01/09 00:04:16;;;;;;;4.53;4.00;;;;;;;7.66;100.00;96399.63;5033007;28;20213;-71
2023/01/09 00:06:45;;;;;;;4.23;3.77;;;;;;;7.63;100.00;96397.44;5033017;28;20206;-71
2023/01/09 00:09:11;;;;;;;4.50;4.10;;;;;;;7.58;100.00;96400.00;5033005;28;20225;-71
2023/01/09 00:11:38;;;;;;;4.13;3.67;;;;;;;7.61;100.00;96405.63;5032828;28;20225;-71
2023/01/09 00:14:05;;;;;;;4.30;3.67;;;;;;;7.60;100.00;96400.59;5032992;28;20210;-71
2023/01/09 00:16:31;;;;;;;4.10;3.80;;;;;;;7.59;100.00;96398.97;5032957;28;20206;-72
2023/01/09 00:18:59;;;;;;;3.83;3.53;;;;;;;7.57;100.00;96401.06;5032655;28;20218;-71
2023/01/09 00:21:25;;;;;;;3.87;3.57;;;;;;;7.57;100.00;96398.41;5032694;28;20245;-72
2023/01/09 00:23:54;;;;;;;3.87;3.57;;;;;;;7.55;100.00;96390.72;5035815;28;20197;-71
2023/01/09 00:26:21;;;;;;;3.67;3.37;;;;;;;7.61;100.00;96391.59;5036429;28;20206;-72
2023/01/09 00:28:49;;;;;;;4.43;4.03;;;;;;;7.53;100.00;96394.66;5036390;28;20305;-71
2023/01/09 00:31:17;;;;;;;3.60;3.30;;;;;;;7.53;100.00;96392.00;5035897;28;20325;-72
2023/01/09 00:33:48;;;;;;;4.50;3.70;;;;;;;7.57;100.00;96398.41;5036279;28;20209;-71
2023/01/09 00:36:15;;;;;;;3.70;3.40;;;;;;;7.55;100.00;96397.88;5036283;28;20195;-72
2023/01/09 00:38:41;;;;;;;2.93;2.73;;;;;;;7.54;100.00;96402.34;5036225;28;20202;-72
2023/01/09 00:41:12;;;;;;;2.73;2.53;;;;;;;7.59;100.00;96406.91;5036213;28;20232;-71
2023/01/09 00:43:45;;;;;;;3.40;3.10;;;;;;;7.59;100.00;96393.69;5035871;28;20193;-71
2023/01/09 00:46:12;;;;;;;2.67;2.47;;;;;;;7.63;100.00;96397.44;5050664;28;20225;-71
2023/01/09 00:48:42;;;;;;;3.80;2.73;;;;;;;7.61;100.00;96399.53;5036040;28;20213;-71
2023/01/09 00:51:08;;;;;;;2.63;2.43;;;;;;;7.59;100.00;96393.69;5035818;28;20303;-71
2023/01/09 00:53:38;;;;;;;2.30;2.00;;;;;;;7.58;100.00;96400.00;5035921;28;20212;-71
2023/01/09 00:56:08;;;;;;;2.53;2.33;;;;;;;7.59;100.00;96398.97;5051279;28;20218;-71
2023/01/09 00:58:35;;;;;;;2.03;1.93;;;;;;;7.63;100.00;96384.22;5034358;28;20201;-72
2023/01/09 01:01:02;;;;;;;2.30;2.20;;;;;;;7.58;100.00;96398.19;5035723;28;20232;-71
2023/01/09 01:03:28;;;;;;;2.17;2.07;;;;;;;7.54;100.00;96393.59;5035409;28;20570;-71
2023/01/09 01:08:38;;;;;;;1.63;1.53;;;;;;;7.63;100.00;96400.09;5035387;28;20212;-71
2023/01/09 01:11:08;;;;;;;1.50;1.40;;;;;;;7.61;100.00;96391.59;5035142;28;20593;-71
2023/01/09 01:13:34;;;;;;;1.50;1.30;;;;;;;7.66;100.00;96384.56;5035612;28;20297;-71
2023/01/09 01:16:04;;;;;;;1.10;1.00;;;;;;;7.62;100.00;96377.34;5035488;28;20213;-71
2023/01/09 01:18:31;;;;;;;1.27;0.90;;;;;;;7.69;100.00;96372.69;5035482;28;20206;-71
2023/01/09 01:20:57;;;;;;;0.70;0.70;;;;;;;7.81;100.00;96378.69;5035300;28;20217;-71
2023/01/09 01:23:24;;;;;;;1.13;0.67;;;;;;;7.81;100.00;96382.16;5035280;28;20206;-71
2023/01/09 01:25:50;;;;;;;0.60;0.60;;;;;;;7.87;100.00;96386.47;5034981;28;20208;-72
2023/01/09 01:28:16;;;;;;;0.57;0.57;;;;;;;7.87;100.00;96378.53;5035285;28;20209;-71
2023/01/09 01:30:43;;;;;;;0.70;0.70;;;;;;;7.84;100.00;96375.56;5035143;28;20289;-72
2023/01/09 01:33:10;;;;;;;0.70;0.70;;;;;;;7.79;100.00;96375.50;5034634;28;20232;-71
2023/01/09 01:35:37;;;;;;;0.83;0.70;;;;;;;7.77;100.00;96361.69;5034002;28;20701;-71
2023/01/09 01:38:04;;;;;;;0.60;0.60;;;;;;;7.72;100.00;96364.28;5035067;28;20206;-71
2023/01/09 01:40:30;;;;;;;0.50;0.50;;;;;;;7.71;100.00;96368.78;5034665;28;20216;-72
2023/01/09 01:42:57;;;;;;;1.00;0.50;;;;;;;7.77;100.00;96364.34;5034882;28;20222;-71
2023/01/09 01:45:29;;;;;;;0.60;0.60;;;;;;;7.73;100.00;96371.16;5034908;28;20230;-71
2023/01/09 01:48:15;;;;;;;0.50;0.50;;;;;;;7.67;100.00;96372.94;5035426;28;20190;-71
2023/01/09 01:50:46;;;;;;;0.77;0.57;;;;;;;7.70;100.00;96375.09;5034790;28;20191;-71
2023/01/09 01:53:28;;;;;;;0.50;0.50;;;;;;;7.69;100.00;96375.34;5034799;28;20213;-71
2023/01/09 01:56:24;;;;;;;0.50;0.50;;;;;;;7.65;100.00;96374.22;5035547;28;20206;-71
2023/01/09 01:59:07;;;;;;;0.97;0.43;;;;;;;7.70;100.00;96392.81;5034690;28;20206;-71
2023/01/09 02:01:37;;;;;;;0.50;0.50;;;;;;;7.62;100.00;96395.84;5034607;28;20261;-71
2023/01/09 02:04:04;;;;;;;1.57;0.60;;;;;;;7.69;100.00;96385.94;5034593;28;20213;-71
2023/01/09 02:06:33;;;;;;;0.43;0.43;;;;;;;7.64;100.00;96381.34;5034531;28;20206;-71
2023/01/09 02:09:01;;;;;;;0.43;0.43;;;;;;;7.68;100.00;96381.66;5034480;28;20210;-71
2023/01/09 02:11:28;;;;;;;0.40;0.40;;;;;;;7.74;100.00;96386.78;5033999;28;20720;-71
2023/01/09 02:13:55;;;;;;;1.00;0.50;;;;;;;7.71;100.00;96374.06;5034441;28;20574;-71
2023/01/09 02:16:46;;;;;;;0.40;0.40;;;;;;;7.76;100.00;96381.25;5049641;28;20206;-72
2023/01/09 02:19:40;;;;;;;0.33;0.33;;;;;;;7.68;100.00;96368.44;5034059;28;20633;-71
2023/01/09 02:22:19;;;;;;;0.50;0.50;;;;;;;7.72;100.00;96370.38;5033917;28;20248;-71
2023/01/09 02:25:04;;;;;;;1.60;0.50;;;;;;;7.72;100.00;96369.56;5034258;28;20186;-71
2023/01/09 02:28:27;;;;;;;0.40;0.40;;;;;;;7.66;100.00;96358.13;5033867;28;20190;-72
2023/01/09 02:31:17;;;;;;;0.40;0.40;;;;;;;7.64;100.00;96364.69;5011942;28;20202;-71
2023/01/09 02:34:09;;;;;;;0.33;0.33;;;;;;;7.61;100.00;96357.22;5011964;28;20211;-71
2023/01/09 02:37:01;;;;;;;0.73;0.50;;;;;;;7.64;100.00;96359.41;5024940;28;20574;-72
2023/01/09 02:39:46;;;;;;;0.43;0.40;;;;;;;7.64;100.00;96356.75;5048208;28;20651;-72
2023/01/09 02:42:24;;;;;;;0.40;0.40;;;;;;;7.63;100.00;96369.16;5033867;28;20229;-71
2023/01/09 02:44:50;;;;;;;0.93;0.60;;;;;;;7.67;100.00;96377.41;5033698;28;20210;-71
2023/01/09 02:47:19;;;;;;;0.50;0.50;;;;;;;7.74;100.00;96362.19;5033807;28;20205;-71
2023/01/09 02:49:50;;;;;;;0.47;0.40;;;;;;;7.67;100.00;96372.94;5033841;28;20206;-71
2023/01/09 02:52:48;;;;;;;1.00;0.40;;;;;;;7.66;100.00;96376.63;5033416;28;20685;-71
2023/01/09 02:55:58;;;;;;;0.40;0.40;;;;;;;7.68;100.00;96371.06;5033745;28;20200;-71
2023/01/09 02:58:49;;;;;;;0.40;0.40;;;;;;;7.71;100.00;96373.25;5033764;28;20182;-72
2023/01/09 03:01:18;;;;;;;0.40;0.40;;;;;;;7.71;100.00;96384.66;5033645;28;20230;-72
2023/01/09 03:04:12;;;;;;;0.30;0.30;;;;;;;7.66;100.00;96386.41;5033396;28;20570;-71
2023/01/09 03:06:50;;;;;;;0.50;0.50;;;;;;;7.60;100.00;96395.31;5033370;28;20209;-71
2023/01/09 03:09:21;;;;;;;0.30;0.30;;;;;;;7.59;100.00;96406.91;5048964;28;20193;-71
2023/01/09 03:11:52;;;;;;;0.50;0.30;;;;;;;7.67;100.00;96407.31;5033394;28;20230;-71
2023/01/09 03:14:23;;;;;;;0.40;0.40;;;;;;;7.64;100.00;96407.78;5033487;28;20208;-71
2023/01/09 03:16:55;;;;;;;0.30;0.30;;;;;;;7.67;100.00;96411.78;5032273;28;20200;-71
2023/01/09 03:19:24;;;;;;;0.30;0.30;;;;;;;7.64;100.00;96404.38;5048458;28;20198;-71
2023/01/09 03:21:51;;;;;;;0.33;0.33;;;;;;;7.59;100.00;96393.69;5031778;28;20234;-71
2023/01/09 03:24:18;;;;;;;0.40;0.40;;;;;;;7.60;100.00;96390.00;5033454;28;20756;-71
2023/01/09 03:26:45;;;;;;;0.30;0.30;;;;;;;7.57;100.00;96403.72;5033377;28;20201;-71
2023/01/09 03:29:11;;;;;;;0.20;0.20;;;;;;;7.48;100.00;96411.25;5033397;28;20205;-71
2023/01/09 03:31:37;;;;;;;1.30;0.50;;;;;;;7.58;100.00;96426.47;5033173;28;20222;-71
2023/01/09 03:34:04;;;;;;;0.30;0.30;;;;;;;7.49;100.00;96439.28;5033034;28;20209;-71
2023/01/09 03:36:30;;;;;;;0.30;0.30;;;;;;;7.50;100.00;96440.88;5033315;28;20206;-71
2023/01/09 03:38:56;;;;;;;0.30;0.30;;;;;;;7.55;100.00;96453.41;5033254;28;20228;-71
2023/01/09 03:41:23;;;;;;;0.30;0.30;;;;;;;7.52;100.00;96454.66;5033183;28;20232;-71
2023/01/09 03:43:49;;;;;;;0.33;0.30;;;;;;;7.53;100.00;96468.69;5033200;28;20202;-71
2023/01/09 03:46:16;;;;;;;0.30;0.30;;;;;;;7.47;100.00;96486.28;5033123;28;20210;-71
2023/01/09 03:48:43;;;;;;;1.40;0.37;;;;;;;7.49;100.00;96493.97;5033176;28;20208;-71
2023/01/09 03:51:10;;;;;;;0.30;0.30;;;;;;;7.47;100.00;96506.66;5033068;28;20225;-71
2023/01/09 03:53:36;;;;;;;1.30;0.30;;;;;;;7.47;100.00;96509.28;5033115;28;20229;-71
2023/01/09 03:56:03;;;;;;;0.20;0.20;;;;;;;7.49;100.00;96508.03;5033890;28;20288;-72
2023/01/09 03:58:29;;;;;;;0.20;0.20;;;;;;;7.42;100.00;96533.00;5035619;28;20568;-71
2023/01/09 04:01:02;;;;;;;0.60;0.40;;;;;;;7.47;100.00;96531.22;5036794;28;20206;-71
2023/01/09 04:03:28;;;;;;;0.20;0.20;;;;;;;7.45;100.00;96545.72;5036480;28;20202;-71
2023/01/09 04:05:54;;;;;;;0.20;0.20;;;;;;;7.47;100.00;96556.88;5036487;28;20784;-71
2023/01/09 04:08:21;;;;;;;0.30;0.23;;;;;;;7.37;100.00;96562.75;5036761;28;20210;-71
2023/01/09 04:10:49;;;;;;;0.20;0.20;;;;;;;7.31;100.00;96576.13;5036673;28;20521;-71
2023/01/09 04:13:16;;;;;;;0.20;0.20;;;;;;;7.26;100.00;96581.31;5036575;28;20221;-72
2023/01/09 04:15:43;;;;;;;0.20;0.20;;;;;;;7.12;100.00;96595.81;5036243;28;20621;-72
2023/01/09 04:18:10;;;;;;;0.10;0.10;;;;;;;7.07;100.00;96608.91;5036633;28;20216;-71
2023/01/09 04:20:36;;;;;;;0.17;0.17;;;;;;;6.98;100.00;96620.88;5036216;28;20208;-71
2023/01/09 04:23:02;;;;;;;0.20;0.20;;;;;;;6.92;100.00;96630.50;5035799;28;20240;-71
2023/01/09 04:25:29;;;;;;;0.13;0.13;;;;;;;6.78;100.00;96621.22;5036365;28;20240;-71
2023/01/09 04:27:55;;;;;;;0.20;0.20;;;;;;;6.73;100.00;96621.09;5036264;28;20206;-71
2023/01/09 04:30:22;;;;;;;0.20;0.20;;;;;;;6.72;100.00;96632.72;5035976;28;20210;-72
2023/01/09 04:32:48;;;;;;;0.20;0.20;;;;;;;6.67;100.00;96644.97;5035919;28;20229;-71
2023/01/09 04:35:15;;;;;;;1.00;0.20;;;;;;;6.61;100.00;96645.91;5036026;28;20596;-71
2023/01/09 04:37:41;;;;;;;1.17;0.23;;;;;;;6.62;100.00;96650.16;5035558;28;20630;-72
2023/01/09 04:40:09;;;;;;;0.20;0.20;;;;;;;6.49;100.00;96655.63;5035995;28;20209;-71
2023/01/09 04:42:36;;;;;;;0.20;0.10;;;;;;;6.50;100.00;96649.31;5035862;28;20253;-71
2023/01/09 04:45:02;;;;;;;0.20;0.20;;;;;;;6.56;100.00;96643.13;5035917;28;20206;-71
2023/01/09 04:47:29;;;;;;;0.77;0.20;;;;;;;6.55;100.00;96652.06;5035896;28;20206;-71
2023/01/09 04:49:56;;;;;;;0.27;0.27;;;;;;;6.52;100.00;96649.91;5035891;28;20296;-71
2023/01/09 04:52:22;;;;;;;0.10;0.10;;;;;;;6.44;100.00;96666.06;5035457;28;20232;-71
2023/01/09 04:54:48;;;;;;;0.20;0.20;;;;;;;6.52;100.00;96668.38;5035536;28;20217;-71
2023/01/09 04:57:15;;;;;;;0.10;0.10;;;;;;;6.46;100.00;96667.44;5035856;28;20210;-71
2023/01/09 04:59:41;;;;;;;0.67;0.20;;;;;;;6.51;100.00;96662.28;5035269;28;20693;-71
2023/01/09 05:02:08;;;;;;;1.37;0.20;;;;;;;6.52;100.00;96668.38;5035217;28;20229;-71
2023/01/09 05:04:35;;;;;;;0.10;0.10;;;;;;;6.56;100.00;96664.25;5034924;28;20216;-71
2023/01/09 05:07:02;;;;;;;1.33;0.23;;;;;;;6.49;100.00;96671.47;5034976;28;20206;-71
2023/01/09 05:09:28;;;;;;;0.60;0.30;;;;;;;6.55;100.00;96654.72;5035215;28;20216;-72
2023/01/09 05:11:55;;;;;;;0.20;0.20;;;;;;;6.51;100.00;96661.50;5035061;28;20226;-71
2023/01/09 05:14:21;;;;;;;0.20;0.20;;;;;;;6.59;100.00;96682.28;5035194;28;20226;-71
2023/01/09 05:16:48;;;;;;;0.67;0.30;;;;;;;6.55;100.00;96691.66;5035186;28;20247;-71
2023/01/09 05:19:14;;;;;;;0.50;0.30;;;;;;;6.56;100.00;96694.09;5034930;28;20665;-72
2023/01/09 05:21:40;;;;;;;0.70;0.30;;;;;;;6.53;100.00;96706.94;5034877;28;20260;-71
2023/01/09 05:24:07;;;;;;;1.80;0.40;;;;;;;6.50;100.00;96707.38;5035099;28;20208;-71
2023/01/09 05:26:33;;;;;;;2.87;0.50;;;;;;;6.54;100.00;96717.28;5034634;28;20202;-71
2023/01/09 05:29:00;;;;;;;0.77;0.40;;;;;;;6.54;100.00;96724.38;5034905;28;20209;-71
2023/01/09 05:31:27;;;;;;;1.00;0.40;;;;;;;6.52;100.00;96729.09;5034695;28;20232;-72
2023/01/09 05:33:53;;;;;;;0.40;0.40;;;;;;;6.45;100.00;96731.00;5034475;28;20719;-71
2023/01/09 05:36:20;;;;;;;1.10;0.40;;;;;;;6.44;100.00;96743.44;5034881;28;20206;-71
2023/01/09 05:38:46;;;;;;;2.23;0.50;;;;;;;6.43;100.00;96748.94;5035144;28;20202;-72
2023/01/09 05:41:12;;;;;;;1.70;0.47;;;;;;;6.32;100.00;96758.41;5034325;28;20226;-72
2023/01/09 05:43:39;;;;;;;0.60;0.40;;;;;;;6.41;100.00;96775.53;5034099;28;20614;-71
2023/01/09 05:46:05;;;;;;;0.80;0.40;;;;;;;6.35;100.00;96767.72;5034286;28;20209;-72
2023/01/09 05:48:32;;;;;;;2.33;0.50;;;;;;;6.25;100.00;96764.81;5034428;28;20201;-72
2023/01/09 05:50:58;;;;;;;0.67;0.40;;;;;;;6.22;100.00;96766.06;5034653;28;20206;-72
2023/01/09 05:53:24;;;;;;;2.83;0.40;;;;;;;6.21;100.00;96772.38;5035086;28;20226;-72
2023/01/09 05:56:04;;;;;;;0.63;0.50;;;;;;;6.11;100.00;96795.81;5034575;28;20205;-73
2023/01/09 05:58:31;;;;;;;0.57;0.30;;;;;;;6.09;100.00;96791.78;5033870;28;20206;-73
2023/01/09 06:00:58;;;;;;;1.70;0.60;;;;;;;5.98;100.00;96789.91;5033969;28;20206;-71
2023/01/09 06:03:25;;;;;;;2.63;0.63;;;;;;;5.97;100.00;96790.94;5034211;28;20256;-71
2023/01/09 06:05:51;;;;;;;0.93;0.40;;;;;;;6.03;100.00;96795.31;5033786;28;20206;-71
2023/01/09 06:08:17;;;;;;;1.30;0.40;;;;;;;6.02;100.00;96793.72;5033783;28;20210;-71
2023/01/09 06:10:45;;;;;;;2.37;0.63;;;;;;;6.01;100.00;96790.25;5033946;28;20577;-71
2023/01/09 06:13:12;;;;;;;0.33;0.30;;;;;;;5.98;100.00;96784.63;5033696;28;20591;-72
2023/01/09 06:15:38;;;;;;;1.40;0.60;;;;;;;5.89;100.00;96785.94;5033780;28;20202;-71
2023/01/09 06:18:05;;;;;;;0.80;0.50;;;;;;;5.84;100.00;96788.44;5033562;28;20212;-71
2023/01/09 06:20:31;;;;;;;1.20;0.50;;;;;;;5.81;100.00;96792.31;5032995;28;20267;-71
2023/01/09 06:22:57;;;;;;;1.70;0.63;;;;;;;5.74;100.00;96796.81;5033226;28;20604;-71
2023/01/09 06:25:24;;;;;;;1.77;0.43;;;;;;;5.70;100.00;96798.28;5033362;28;20202;-71
2023/01/09 06:27:51;;;;;;;1.60;0.50;;;;;;;5.52;100.00;96800.88;5033463;28;20217;-71
2023/01/09 06:30:19;;;;;;;2.10;0.43;;;;;;;5.53;100.00;96801.72;5033359;28;20237;-71
2023/01/09 06:32:49;;;;;;;1.13;0.50;;;;;;;5.57;100.00;96808.94;5033144;28;20240;-71
2023/01/09 06:35:19;;;;;;;3.97;0.43;;;;;;;5.42;100.00;96815.63;5033330;28;20216;-71
2023/01/09 06:37:46;;;;;;;1.20;0.40;;;;;;;5.40;100.00;96823.72;5033480;28;20205;-71
2023/01/09 06:40:12;;;;;;;1.13;0.50;;;;;;;5.28;100.00;96825.44;5033312;28;20202;-71
2023/01/09 06:42:39;;;;;;;1.47;0.57;;;;;;;5.32;100.00;96828.44;5033416;28;20237;-71
2023/01/09 06:45:06;;;;;;;1.50;0.40;;;;;;;5.35;100.00;96823.56;5033669;28;20732;-71
2023/01/09 06:47:33;;;;;;;0.97;0.40;;;;;;;5.21;100.00;96829.16;5033455;28;20213;-71
2023/01/09 06:49:59;;;;;;;0.40;0.40;;;;;;;5.31;100.00;96830.28;5033435;28;20312;-71
2023/01/09 06:52:25;;;;;;;3.53;0.70;;;;;;;5.23;100.00;96837.63;5032898;28;20234;-71
2023/01/09 06:54:52;;;;;;;0.97;0.57;;;;;;;5.35;100.00;96843.84;5033220;28;20252;-71
2023/01/09 06:57:18;;;;;;;2.13;0.60;;;;;;;5.45;100.00;96842.31;5020578;28;20203;-71
2023/01/09 06:59:45;;;;;;;1.37;0.50;;;;;;;5.55;100.00;96844.47;5013675;28;20202;-71
2023/01/09 07:02:19;;;;;;;2.83;0.60;;;;;;;5.62;100.00;96850.50;5013074;28;20231;-71
2023/01/09 07:04:46;;;;;;;1.00;0.50;;;;;;;5.60;100.00;96850.69;5013229;28;20202;-71
2023/01/09 07:07:12;;;;;;;4.53;0.60;;;;;;;5.52;100.00;96845.69;5013097;28;20211;-71
2023/01/09 07:09:39;;;;;;;1.90;0.60;;;;;;;5.51;100.00;96840.63;5012967;28;20637;-71
2023/01/09 07:12:05;;;;;;;3.97;0.87;;;;;;;5.52;100.00;96844.91;5013768;28;20226;-71
2023/01/09 07:14:32;;;;;;;1.23;0.50;;;;;;;5.56;100.00;96835.53;5012904;28;20231;-71
2023/01/09 07:16:59;;;;;;;2.60;0.47;;;;;;;5.57;100.00;96834.53;5012756;28;20229;-71
2023/01/09 07:19:25;;;;;;;2.27;1.00;;;;;;;5.43;100.00;96840.94;5013158;28;20293;-71
2023/01/09 07:21:51;;;;;;;1.77;1.00;;;;;;;5.39;100.00;96842.38;5012740;28;20328;-71
2023/01/09 07:24:18;;;;;;;3.27;0.83;;;;;;;5.44;100.00;96842.53;5013259;28;20229;-71
2023/01/09 07:26:44;;;;;;;4.20;0.80;;;;;;;5.37;100.00;96839.13;5013093;28;20203;-71
2023/01/09 07:29:11;;;;;;;1.90;0.80;;;;;;;5.30;100.00;96857.63;5013323;28;20210;-71
2023/01/09 07:31:38;;;;;;;3.37;1.00;;;;;;;5.43;100.00;96854.09;5012706;28;20732;-71
2023/01/09 07:34:04;;;;;;;3.00;0.70;;;;;;;5.52;100.00;96856.25;5016413;28;20697;-71
2023/01/09 07:36:31;;;;;;;3.00;1.00;;;;;;;5.58;100.00;96857.22;5017697;28;20221;-71
2023/01/09 07:38:57;;;;;;;1.47;0.60;;;;;;;5.60;100.00;96860.44;5016876;28;20214;-71
2023/01/09 07:41:23;;;;;;;2.50;0.90;;;;;;;5.68;100.00;96854.88;5016650;28;20226;-71
2023/01/09 07:43:50;;;;;;;1.87;0.70;;;;;;;5.68;100.00;96853.06;5016771;28;20203;-71
2023/01/09 07:46:16;;;;;;;2.17;0.70;;;;;;;5.67;100.00;96848.00;5016780;28;20217;-71
2023/01/09 07:48:42;;;;;;;1.73;0.80;;;;;;;5.71;100.00;96857.09;5016779;28;20213;-71
2023/01/09 07:51:09;;;;;;;3.53;0.67;;;;;;;5.59;100.00;96856.19;5016886;28;20222;-72
2023/01/09 07:53:35;;;;;;;1.00;0.57;;;;;;;5.62;100.00;96872.41;5016945;28;20555;-71
2023/01/09 07:56:02;;;;;;;3.33;1.00;;;;;;;5.53;100.00;96863.16;5016593;28;20209;-71
2023/01/09 07:58:28;;;;;;;1.43;0.87;;;;;;;5.61;100.00;96865.47;5016653;28;20202;-71
2023/01/09 08:00:54;;;;;;;2.37;0.70;;;;;;;5.55;100.00;96871.63;5016816;28;20213;-71
2023/01/09 08:03:21;;;;;;;2.13;0.80;;;;;;;5.50;100.00;96878.56;5016380;28;20249;-71
2023/01/09 08:06:02;;;;;;;2.83;0.80;;;;;;;5.60;100.00;96884.97;5016874;28;20206;-72
2023/01/09 08:08:32;;;;;;;1.93;0.80;;;;;;;5.69;100.00;96885.50;5016852;28;20282;-73
2023/01/09 08:10:59;;;;;;;3.37;0.60;;;;;;;5.73;100.00;96884.84;5016644;28;20219;-72
2023/01/09 08:13:25;;;;;;;2.30;0.70;;;;;;;5.88;100.00;96892.47;5016399;28;20223;-71
2023/01/09 08:15:57;;;;;;;2.77;0.77;;;;;;;5.92;100.00;96898.94;5015887;28;20685;-72
2023/01/09 08:18:23;;;;;;;3.63;0.83;;;;;;;6.05;100.00;96896.13;5016563;28;20190;-72
2023/01/09 08:20:49;;;;;;;2.00;0.90;;;;;;;6.10;100.00;96896.31;5016393;28;20203;-72
2023/01/09 08:23:16;;;;;;;2.07;0.73;;;;;;;6.24;100.00;96893.28;5015972;28;20215;-73
2023/01/09 08:25:42;;;;;;;2.10;0.60;;;;;;;6.38;100.00;96894.75;5016177;28;20209;-73
2023/01/09 08:28:12;;;;;;;1.00;0.60;;;;;;;6.45;100.00;96882.31;5016374;28;20203;-72
2023/01/09 08:30:38;;;;;;;0.67;0.57;;;;;;;6.42;100.00;96890.66;5016490;28;20210;-72
2023/01/09 08:33:05;;;;;;;1.50;0.70;;;;;;;6.40;100.00;96889.25;5015955;28;20605;-73
2023/01/09 08:35:31;;;;;;;2.70;0.60;;;;;;;6.40;100.00;96886.63;5016219;28;20206;-72
2023/01/09 08:37:58;;;;;;;3.70;0.90;;;;;;;6.47;100.00;96892.66;5015741;28;20313;-73
2023/01/09 08:40:24;;;;;;;2.93;0.80;;;;;;;6.42;100.00;96897.78;5015439;28;20233;-73
2023/01/09 08:48:18;;;;;;;2.00;0.77;;;;;;;6.42;100.00;96893.28;5015747;28;20329;-73
2023/01/09 08:50:48;;;;;;;2.20;0.77;;;;;;;6.50;100.00;96897.47;5015642;28;20206;-72
2023/01/09 08:53:21;;;;;;;5.00;0.80;;;;;;;6.53;100.00;96902.31;5015132;28;20673;-72
2023/01/09 08:55:48;;;;;;;2.37;0.70;;;;;;;6.57;99.63;96901.66;5015958;28;20191;-72
2023/01/09 08:58:16;;;;;;;2.63;0.70;;;;;;;6.57;100.00;96906.13;5015593;28;20241;-73
2023/01/09 09:00:46;;;;;;;2.57;0.73;;;;;;;6.58;100.00;96907.72;5015366;28;20301;-72
2023/01/09 09:03:16;;;;;;;2.93;1.00;;;;;;;6.61;100.00;96900.16;5018136;28;20195;-72
2023/01/09 09:09:15;;;;;;;1.40;0.53;;;;;;;6.58;100.00;96907.72;5013000;28;20568;-73
2023/01/09 09:23:59;;;;;;;2.07;0.73;;;;;;;7.19;94.27;96887.22;4993377;28;20210;-73
2023/01/09 09:26:34;;;;;;;3.30;0.80;;;;;;;7.20;94.38;96886.19;4977886;28;20215;-72
2023/01/09 09:32:10;;;;;;;1.27;0.53;;;;;;;7.25;92.18;96889.75;5014294;28;20238;-72
2023/01/09 09:35:08;;;;;;;1.77;0.73;;;;;;;7.32;92.68;96889.63;5014988;28;20296;-72
2023/01/09 09:41:05;;;;;;;2.97;1.37;;;;;;;7.32;93.69;96902.84;5012375;28;20215;-72
2023/01/09 09:53:14;;;;;;;2.57;0.73;;;;;;;7.67;90.88;96914.31;5006341;28;20790;-72
2023/01/09 09:56:01;;;;;;;2.37;0.70;;;;;;;7.63;88.95;96918.44;5013685;28;20646;-72
2023/01/09 09:59:12;;;;;;;1.33;0.70;;;;;;;7.59;89.58;96920.75;5014158;28;20666;-72
2023/01/09 10:02:03;;;;;;;4.33;0.83;;;;;;;7.68;92.11;96906.16;5008220;28;20226;-72
2023/01/09 10:14:23;;;;;;;2.63;0.90;;;;;;;7.83;90.47;96901.22;4936181;29;20239;-72
2023/01/09 10:17:44;;;;;;;;;;;;;;;;;;;;;
2023/01/09 10:20:35;;;;;;;3.07;0.70;;;;;;;8.18;89.40;96887.97;4979637;28;20213;-72
2023/01/09 10:26:47;;;;;;;0.93;0.47;;;;;;;8.26;87.25;96885.00;5012544;28;20257;-73
2023/01/09 10:29:25;;;;;;;2.53;0.90;;;;;;;8.20;89.44;96885.91;5012738;28;20281;-72
2023/01/09 10:47:45;;;;;;;2.63;0.80;;;;;;;8.07;89.37;96878.22;5013366;28;20197;-72
2023/01/09 10:50:33;;;;;;;2.63;0.97;;;;;;;8.23;89.52;96869.59;5013918;28;20206;-72
2023/01/09 10:53:08;;;;;;;3.83;1.33;;;;;;;8.33;88.58;96867.16;5013339;28;20701;-73
2023/01/09 10:55:58;;;;;;;4.30;1.00;;;;;;;8.46;88.57;96858.97;5013659;28;20214;-73
2023/01/09 10:58:24;;;;;;;3.30;1.10;;;;;;;8.40;85.58;96857.22;5013948;28;20194;-73
2023/01/09 11:01:04;;;;;;;3.17;0.80;;;;;;;8.35;87.16;96863.25;5013859;28;20650;-73
2023/01/09 11:03:33;;;;;;;2.23;0.70;;;;;;;8.29;86.62;96864.16;5013232;28;20207;-73
2023/01/09 11:06:42;;;;;;;4.57;0.80;;;;;;;8.32;85.99;96868.22;5013510;28;20256;-73
2023/01/09 11:09:18;;;;;;;2.80;0.83;;;;;;;8.36;86.64;96864.03;5013256;28;20290;-73
2023/01/09 11:11:46;;;;;;;3.07;1.00;;;;;;;8.46;84.90;96858.97;5013517;28;20222;-73
2023/01/09 11:14:32;;;;;;;3.90;1.10;;;;;;;8.48;85.70;96856.88;5013450;28;20227;-73
2023/01/09 11:17:08;;;;;;;3.77;0.90;;;;;;;8.61;85.87;96861.91;5013421;28;20194;-72
2023/01/09 11:25:52;;;;;;;4.20;1.10;;;;;;;8.57;86.88;96860.75;5005924;28;20241;-71
2023/01/09 11:28:18;;;;;;;5.17;1.10;;;;;;;8.62;84.91;96851.06;5012958;28;20211;-71
2023/01/09 11:30:58;;;;;;;3.70;1.20;;;;;;;8.58;86.62;96849.94;5013227;28;20224;-71
2023/01/09 11:33:27;;;;;;;3.97;1.30;;;;;;;8.75;86.81;96857.94;5013217;28;20191;-72
2023/01/09 11:35:59;;;;;;;2.53;1.00;;;;;;;8.75;84.90;96856.09;5013104;28;20223;-71
2023/01/09 11:38:33;;;;;;;5.63;1.10;;;;;;;8.79;86.30;96846.63;5012993;28;20215;-72
2023/01/09 11:41:03;;;;;;;4.07;0.93;;;;;;;8.93;85.93;96849.81;5013090;28;20195;-72
2023/01/09 11:43:37;;;;;;;2.10;0.97;;;;;;;8.94;85.24;96840.78;5012968;28;20187;-72
2023/01/09 11:46:07;;;;;;;3.13;0.80;;;;;;;8.91;83.75;96838.66;5012740;28;20198;-72
2023/01/09 11:48:36;;;;;;;2.03;1.20;;;;;;;9.13;83.64;96845.66;5013012;28;20207;-72
2023/01/09 11:51:07;;;;;;;3.83;1.00;;;;;;;9.18;81.29;96835.13;5012781;28;20226;-72
2023/01/09 11:53:55;;;;;;;3.73;0.93;;;;;;;9.36;81.61;96842.06;5012861;28;20684;-71
2023/01/09 11:56:22;;;;;;;3.43;1.00;;;;;;;9.34;79.99;96833.53;5011527;28;20201;-72
2023/01/09 11:59:07;;;;;;;;;;;;;;;;;;;;;
2023/01/09 12:01:52;;;;;;;2.67;0.90;;;;;;;9.36;80.60;96834.91;5011510;28;20230;-71
2023/01/09 12:04:35;;;;;;;1.87;0.90;;;;;;;9.63;78.32;96843.03;5012643;28;20553;-70
2023/01/09 12:07:42;;;;;;;2.23;0.87;;;;;;;9.38;77.31;96837.34;5012713;28;20191;-70
2023/01/09 12:13:48;;;;;;;1.80;0.90;;;;;;;9.65;78.78;96836.44;5058206;22;20248;-71
2023/01/09 12:16:24;;;;;;;3.27;1.00;;;;;;;9.51;76.63;96834.38;5023875;28;20209;-71
2023/01/09 12:19:07;;;;;;;3.20;0.80;;;;;;;9.29;79.24;96825.50;5033941;28;20205;-71
2023/01/09 12:22:01;;;;;;;3.03;0.93;;;;;;;9.15;80.98;96832.97;5034983;28;20308;-71
2023/01/09 12:24:55;;;;;;;3.20;1.00;;;;;;;8.90;80.98;96844.97;5035714;28;20186;-71
2023/01/09 12:27:40;;;;;;;3.57;0.80;;;;;;;8.68;84.31;96841.34;5034347;28;20641;-71
2023/01/09 12:30:35;;;;;;;4.30;1.00;;;;;;;8.55;85.40;96842.44;5035527;28;20687;-72
2023/01/09 12:33:21;;;;;;;2.90;0.90;;;;;;;8.48;87.30;96840.97;5034583;28;20221;-72
2023/01/09 12:39:54;;;;;;;2.83;0.97;;;;;;;8.14;97.39;96847.13;4975152;28;20205;-72
2023/01/09 12:46:26;;;;;;;4.07;1.07;;;;;;;8.14;97.09;96865.66;4948564;29;20210;-72
2023/01/09 12:49:46;;;;;;;2.47;1.07;;;;;;;8.15;100.00;96865.41;4954883;29;20213;-72
2023/01/09 12:53:13;;;;;;;6.30;1.20;;;;;;;8.23;97.29;96880.19;4954924;28;20232;-72
2023/01/09 12:56:49;;;;;;;2.37;0.70;;;;;;;8.16;92.18;96866.22;4887269;29;20638;-72
2023/01/09 12:59:39;;;;;;;3.23;0.83;;;;;;;8.18;93.53;96866.78;4933471;29;20223;-72
2023/01/09 13:02:39;;;;;;;2.73;0.97;;;;;;;8.34;93.84;96871.41;4954925;28;20225;-72
2023/01/09 13:05:37;;;;;;;2.77;0.70;;;;;;;8.28;94.04;96872.34;4942304;29;20217;-71
2023/01/09 13:08:27;;;;;;;5.47;0.80;;;;;;;8.48;95.22;96862.16;4954758;29;20316;-72
2023/01/09 13:11:25;;;;;;;3.33;0.80;;;;;;;8.47;93.02;96860.56;4954842;28;20737;-73
2023/01/09 13:14:22;;;;;;;2.37;0.50;;;;;;;8.55;89.17;96860.19;4954810;29;20193;-73
2023/01/09 13:16:55;;;;;;;1.63;0.70;;;;;;;8.57;89.12;96868.72;4990015;28;20225;-73
2023/01/09 13:19:33;;;;;;;4.03;0.70;;;;;;;8.56;92.06;96870.53;5035220;28;20213;-72
2023/01/09 13:22:13;;;;;;;2.93;0.80;;;;;;;8.59;91.84;96861.31;5035250;28;20284;-73
2023/01/09 13:28:04;;;;;;;1.77;0.83;;;;;;;8.35;88.19;96870.38;4993315;28;20212;-72
2023/01/09 13:30:51;;;;;;;2.60;0.67;;;;;;;8.34;92.68;96876.72;5033562;28;20198;-72
2023/01/09 13:33:30;;;;;;;1.27;0.70;;;;;;;8.29;96.46;96877.38;5035000;28;20191;-73
2023/01/09 13:36:01;;;;;;;0.97;0.70;;;;;;;8.29;95.37;96879.25;5034731;28;20317;-73